Date,TemperatureHighF,TemperatureAvgF,TemperatureLowF,DewpointHighF,DewpointAvgF,DewpointLowF,HumidityHigh,HumidityAvg,HumidityLow,PressureMaxIn,PressureMinIn,WindSpeedMaxMPH,WindSpeedAvgMPH,GustSpeedMaxMPH,PrecipitationSumIn
2014-1-1,1.4,-9.8,-18.7,-4.1,-14.7,-25.4,95,78,69,30.49,30.07,13,3,15,0.00
2014-1-2,-15.3,-19.4,-26.9,-19.8,-25.6,-32.2,85,72,64,30.59,30.33,7,3,10,0.00
2014-1-3,-9.0,-15.3,-19.3,-14.4,-21.1,-25.1,80,74,68,30.32,30.09,13,8,15,0.00
2014-1-4,3.8,-6.0,-18.3,0.0,-10.7,-23.2,85,79,69,30.38,30.18,5,1,6,0.00
2014-1-5,19.6,12.4,3.8,17.2,9.1,-0.4,92,86,79,30.33,30.18,1,0,1,0.00
2014-1-6,40.0,30.1,19.1,39.2,28.0,17.2,97,92,78,30.20,29.14,13,2,14,1.00
2014-1-7,23.1,6.7,0.1,17.8,-1.3,-10.1,80,69,59,29.74,29.16,12,6,19,0.00
2014-1-8,11.7,5.9,0.8,2.6,-3.1,-7.9,78,66,53,30.21,29.73,10,5,15,0.00
2014-1-9,10.3,5.9,-3.1,4.2,-1.8,-10.2,80,71,45,30.54,30.20,13,2,23,0.00
2014-1-10,19.7,8.9,-2.7,12.1,2.3,-6.7,85,75,60,30.50,30.25,2,0,2,0.00
2014-1-11,41.1,26.4,15.5,40.9,24.4,11.3,100,92,82,30.25,29.06,1,0,2,0.12
2014-1-12,43.4,37.8,30.8,42.1,31.4,22.3,98,78,62,29.66,29.00,16,7,20,0.41
2014-1-13,36.1,30.6,22.2,29.9,23.9,16.7,84,76,66,29.96,29.67,9,1,11,0.00
2014-1-14,38.3,35.8,32.9,37.0,34.2,29.4,97,94,82,29.80,29.60,2,0,3,0.33
2014-1-15,36.4,30.6,26.7,35.4,26.8,20.1,97,86,67,29.95,29.60,11,2,17,0.01
2014-1-16,33.5,31.4,29.1,30.4,28.5,26.0,96,89,80,29.96,29.89,3,1,4,0.00
2014-1-17,34.0,31.2,28.4,33.0,29.9,25.6,97,95,88,29.94,29.83,4,0,4,0.07
2014-1-18,31.9,25.6,14.6,26.6,22.8,12.7,95,89,73,29.87,29.64,7,1,7,0.01
2014-1-19,25.6,18.5,8.9,24.4,16.6,6.4,95,92,88,29.66,29.25,4,0,6,0.00
2014-1-20,20.8,7.3,-7.0,18.6,2.0,-12.6,93,78,68,29.79,29.24,9,3,16,0.00
2014-1-21,-1.2,-7.3,-14.9,-9.5,-13.5,-19.5,83,74,65,30.13,29.78,7,2,10,0.00
2014-1-22,1.9,-7.1,-17.2,-2.6,-11.8,-21.8,92,79,75,30.12,29.76,16,7,21,0.00
2014-1-23,5.7,0.0,-3.7,-2.3,-5.4,-8.1,84,77,67,30.00,29.77,10,4,16,0.00
2014-1-24,3.3,-3.9,-11.6,-5.3,-9.7,-15.6,92,76,63,30.11,29.94,6,1,10,0.00
2014-1-25,21.1,11.4,-4.3,19.3,6.1,-9.7,93,79,60,29.94,29.22,1,0,4,0.00
2014-1-26,20.6,4.3,-8.7,18.9,-1.5,-15.9,93,76,63,29.88,29.11,14,5,20,0.00
2014-1-27,20.5,3.7,-11.4,15.3,-1.7,-16.1,91,78,64,29.91,29.40,13,3,21,0.00
2014-1-28,4.1,-2.7,-8.6,-2.9,-10.5,-14.8,82,69,54,30.16,29.80,11,3,18,0.00
2014-1-29,12.4,2.2,-11.2,2.2,-5.3,-15.7,84,71,55,30.16,29.83,8,2,11,0.00
2014-1-30,17.2,7.7,-0.5,5.8,0.8,-4.8,83,73,55,30.32,29.96,6,2,10,0.00
2014-1-31,29.3,20.8,9.9,19.7,13.6,5.2,86,74,62,30.10,29.81,13,3,19,0.00
2014-2-1,28.2,19.9,8.6,23.6,12.3,3.7,92,73,55,30.28,29.99,9,1,14,0.00
2014-2-2,30.5,26.6,22.2,28.0,24.2,19.4,95,90,85,30.00,29.79,7,2,13,0.01
2014-2-3,22.0,10.8,-3.6,19.3,6.2,-6.7,90,81,69,30.32,30.01,11,2,15,0.00
2014-2-4,19.7,7.3,-4.2,13.9,2.8,-7.6,88,82,67,30.40,30.31,6,2,10,0.00
2014-2-5,13.3,7.7,-0.1,8.9,3.2,-3.3,92,82,74,30.36,29.94,9,1,14,0.00
2014-2-6,11.8,4.3,-3.0,0.7,-2.7,-8.2,80,72,59,30.19,29.99,7,2,14,0.00
2014-2-7,18.6,10.8,-1.8,8.8,3.9,-5.2,87,74,62,30.08,29.95,13,2,13,0.00
2014-2-8,16.7,11.2,3.7,6.6,3.3,-0.9,84,70,55,30.14,29.99,10,4,13,0.00
2014-2-9,14.6,3.2,-8.1,2.5,-3.0,-11.6,88,76,56,30.20,30.03,4,0,4,0.00
2014-2-10,12.2,5.3,0.7,2.3,-1.6,-4.9,86,73,55,30.13,29.98,6,1,10,0.00
2014-2-11,6.8,-0.1,-9.8,-1.6,-7.6,-13.8,84,71,53,30.30,30.13,10,3,15,0.00
2014-2-12,20.3,7.7,-0.7,1.8,-2.1,-5.4,80,65,42,30.50,30.30,11,2,16,0.00
2014-2-13,27.0,14.1,-1.4,21.7,8.0,-7.4,92,77,61,30.38,29.75,6,0,6,0.00
2014-2-14,27.0,22.7,16.4,25.0,20.7,13.0,94,92,86,29.73,28.85,16,11,21,0.00
2014-2-15,19.7,15.8,9.4,16.2,11.8,5.7,91,84,75,29.93,29.50,11,2,15,0.00
2014-2-16,17.5,13.8,9.9,15.1,10.1,4.7,90,85,77,29.72,29.43,21,11,23,0.01
2014-2-17,14.7,9.2,-0.9,5.3,1.7,-6.1,79,71,55,30.31,29.73,17,10,22,0.00
2014-2-18,20.3,5.9,-12.0,13.2,0.5,-16.0,87,79,56,30.37,30.09,1,0,1,0.00
2014-2-19,30.7,22.3,9.5,27.8,18.8,6.9,95,86,73,30.09,29.77,2,0,2,0.04
2014-2-20,34.0,28.8,19.1,28.7,25.2,15.5,95,86,73,30.17,29.75,7,2,12,0.08
2014-2-21,31.1,21.7,8.8,28.1,18.9,6.5,95,89,75,30.26,29.76,1,0,1,0.03
2014-2-22,38.0,32.4,28.1,30.9,27.1,22.0,96,82,58,29.76,29.59,19,5,23,0.15
2014-2-23,32.3,26.6,15.2,27.0,16.7,8.4,91,66,50,29.82,29.67,12,4,23,0.00
2014-2-24,23.9,16.4,8.9,17.0,11.2,4.0,88,80,58,29.71,29.58,8,2,9,0.00
2014-2-25,11.4,6.5,-1.9,3.4,-1.4,-7.1,83,70,52,29.81,29.70,11,4,19,0.00
2014-2-26,15.7,4.2,-10.9,9.2,-2.3,-14.6,87,74,57,29.83,29.71,6,0,11,0.00
2014-2-27,14.3,2.1,-9.9,6.3,-3.1,-13.6,88,79,62,29.81,29.65,3,0,4,0.00
2014-2-28,14.2,4.5,-6.2,4.0,-4.7,-13.0,89,67,45,30.42,29.70,13,4,22,0.00
2014-3-1,14.8,4.4,-12.7,11.4,-1.6,-18.4,89,76,51,30.45,29.99,1,0,3,0.00
2014-3-2,16.4,9.4,-7.2,13.5,0.4,-13.0,89,67,48,30.10,29.96,13,4,18,0.00
2014-3-3,7.1,-4.8,-14.2,-1.0,-13.3,-18.8,82,67,45,30.25,30.01,13,3,16,0.00
2014-3-4,11.1,-2.8,-16.5,1.1,-11.2,-21.3,89,67,52,30.41,30.23,13,3,15,0.00
2014-3-5,8.4,-5.1,-22.7,-8.7,-15.7,-27.5,81,62,40,30.52,30.41,10,3,13,0.00
2014-3-6,19.6,7.1,-2.4,-7.6,-11.7,-14.8,63,43,26,30.62,30.43,10,4,15,0.00
2014-3-7,38.2,17.2,-7.2,13.2,-2.0,-15.9,67,45,22,30.44,29.88,7,0,8,0.02
2014-3-8,31.9,25.3,13.8,23.4,15.5,8.4,80,66,50,29.88,29.71,11,4,21,0.00
2014-3-9,20.4,13.1,5.8,8.6,2.5,-2.6,82,64,40,29.88,29.81,10,3,12,0.00
2014-3-10,29.6,14.2,0.8,15.8,6.0,-4.5,80,70,54,29.85,29.66,4,0,4,0.00
2014-3-11,32.6,26.8,18.0,28.9,23.0,12.9,91,85,70,29.65,29.44,2,0,4,0.12
2014-3-12,29.1,20.5,11.9,24.2,13.8,3.4,88,76,52,29.77,29.61,10,4,12,0.00
2014-3-13,12.1,9.0,7.4,9.2,5.9,3.1,89,87,82,29.65,29.36,16,11,22,0.00
2014-3-14,25.1,13.2,1.5,17.5,5.8,-4.3,90,73,49,30.00,29.66,10,3,14,0.00
2014-3-15,38.0,30.0,19.8,34.8,27.8,17.3,95,91,87,29.80,29.56,8,1,11,0.30
2014-3-16,26.3,15.3,4.7,23.5,7.3,-7.6,90,71,53,29.97,29.62,17,9,23,0.00
2014-3-17,14.6,5.8,-7.1,-1.0,-7.1,-15.2,68,55,42,30.11,29.98,12,5,22,0.00
2014-3-18,24.8,12.5,0.7,6.7,-0.5,-7.1,73,57,40,30.41,30.11,11,4,14,0.00
2014-3-19,29.9,15.9,-3.7,14.7,4.3,-7.8,84,62,35,30.46,30.12,1,0,5,0.00
2014-3-20,31.5,27.4,23.9,29.7,25.3,16.3,94,92,62,30.12,29.44,2,0,4,0.10
2014-3-21,33.5,29.7,26.2,30.0,25.7,19.4,96,85,72,29.79,29.41,13,5,19,0.02
2014-3-22,26.6,21.5,12.0,21.7,15.3,7.0,92,77,60,29.91,29.66,10,2,16,0.04
2014-3-23,19.2,12.8,0.8,17.3,6.4,-8.3,92,76,55,30.02,29.71,13,6,21,0.01
2014-3-24,15.1,6.0,-2.4,2.5,-3.5,-9.2,81,65,52,30.05,29.95,12,6,16,0.00
2014-3-25,27.0,9.2,-9.1,13.6,1.9,-13.4,87,73,46,30.11,30.00,12,1,17,0.00
2014-3-26,29.0,17.4,1.4,17.4,10.5,-2.0,90,75,57,30.12,29.70,15,5,22,0.00
2014-3-27,26.8,17.7,6.6,16.6,4.7,-2.3,86,58,40,30.16,29.72,16,8,24,0.00
2014-3-28,33.2,25.9,15.1,31.9,20.7,5.1,95,81,64,30.18,29.83,2,0,5,0.01
2014-3-29,38.2,32.8,26.0,33.5,25.1,16.6,96,74,48,30.38,29.87,10,3,10,0.09
2014-3-30,28.3,26.8,25.3,27.5,22.5,16.1,100,85,64,30.36,30.07,10,5,16,0.00
2014-3-31,34.2,29.2,25.8,28.7,25.4,21.2,92,86,77,30.20,30.03,13,9,18,0.03
2014-4-1,45.4,32.2,18.9,20.9,14.7,9.7,80,51,29,30.24,30.10,12,5,14,0.00
2014-4-2,42.3,30.7,15.3,27.1,19.0,9.1,86,63,41,30.19,30.01,4,0,5,0.00
2014-4-3,35.0,29.7,22.5,29.6,24.1,19.2,94,80,60,30.16,30.01,5,2,8,0.01
2014-4-4,48.9,33.5,18.3,28.4,22.5,14.5,85,65,40,30.23,29.97,3,1,4,0.00
2014-4-5,37.7,34.3,31.3,34.8,31.9,28.3,96,91,73,29.99,29.56,5,0,7,0.43
2014-4-6,40.2,34.2,28.3,31.8,25.9,23.1,95,73,51,30.00,29.56,17,8,21,0.01
2014-4-7,55.9,41.2,30.9,33.2,28.7,24.8,79,63,40,30.18,30.01,6,1,7,0.00
2014-4-8,40.9,37.0,33.5,38.8,34.2,29.2,97,90,71,30.01,29.17,2,0,2,0.59
2014-4-9,40.6,33.6,22.8,39.8,22.2,8.7,97,66,35,29.79,29.18,12,8,17,0.02
2014-4-10,49.1,34.3,15.2,29.0,18.8,7.6,75,54,38,29.97,29.71,8,2,15,0.00
2014-4-11,51.0,42.6,32.8,37.7,31.4,26.4,85,66,43,30.04,29.68,11,3,12,0.00
2014-4-12,49.5,36.4,25.9,32.4,26.2,14.6,90,68,44,30.26,29.95,16,3,21,0.00
2014-4-13,37.4,30.4,22.1,32.2,22.2,13.6,95,73,44,30.41,30.08,1,0,3,0.04
2014-4-14,49.9,40.8,33.2,45.6,38.8,31.9,97,93,81,30.08,29.65,2,0,3,0.60
2014-4-15,52.7,46.7,41.6,51.0,45.6,40.0,98,96,93,29.74,29.42,8,1,10,0.36
2014-4-16,40.9,24.9,16.0,39.3,18.4,9.8,95,77,53,30.63,29.54,16,7,21,0.09
2014-4-17,42.0,28.1,11.6,25.2,15.8,8.1,88,62,34,30.85,30.62,6,1,7,0.00
2014-4-18,47.8,35.4,23.4,29.3,23.4,17.3,83,63,37,30.70,30.16,1,0,5,0.00
2014-4-19,40.1,35.7,32.0,36.0,32.3,26.1,96,88,65,30.35,30.06,13,4,18,0.07
2014-4-20,49.2,36.8,26.9,28.0,21.1,14.4,86,56,26,30.53,30.20,6,1,8,0.00
2014-4-21,59.0,44.8,34.4,37.7,31.3,21.3,76,60,42,30.20,29.74,11,2,12,0.00
2014-4-22,46.9,39.4,30.8,41.5,35.0,28.2,97,85,63,29.79,29.53,1,0,3,0.27
2014-4-23,41.1,37.4,33.3,40.3,36.3,31.3,97,96,92,29.55,29.43,12,3,13,0.74
2014-4-24,34.4,33.1,31.2,33.6,32.2,29.9,97,96,92,29.91,29.53,11,8,14,0.53
2014-4-25,43.8,35.7,30.0,34.8,31.5,28.2,95,85,66,29.96,29.88,13,3,15,0.02
2014-4-26,48.4,38.7,26.0,34.4,29.5,24.8,96,72,42,29.95,29.86,5,1,6,0.00
2014-4-27,48.8,41.0,35.0,35.0,33.2,30.9,88,75,53,30.08,29.89,16,7,25,0.00
2014-4-28,45.1,40.4,36.6,37.5,34.8,32.1,92,81,66,30.43,30.05,8,4,13,0.02
2014-4-29,47.2,39.3,32.2,31.8,29.8,27.6,84,70,51,30.63,30.43,9,3,11,0.00
2014-4-30,54.3,39.6,28.3,32.9,29.1,25.7,91,69,39,30.63,30.22,2,0,8,0.00
2014-5-1,42.3,40.0,36.8,41.5,37.8,31.7,100,92,76,30.21,29.62,1,0,3,0.36
2014-5-2,55.9,47.2,40.3,44.7,41.0,39.1,98,81,55,29.65,29.53,13,5,20,0.01
2014-5-3,56.4,48.0,38.7,46.6,42.1,36.9,95,81,60,29.76,29.65,5,1,8,0.02
2014-5-4,50.7,43.7,40.0,47.4,41.9,38.6,97,94,84,29.74,29.54,4,1,6,0.51
2014-5-5,53.9,45.3,38.6,43.6,39.7,37.1,96,82,57,29.72,29.63,16,6,19,0.09
2014-5-6,57.1,47.8,38.1,40.1,34.3,24.4,88,64,30,29.93,29.71,14,7,18,0.01
2014-5-7,59.8,48.9,37.4,36.6,31.2,25.9,84,55,28,30.13,29.94,12,6,14,0.00
2014-5-8,53.9,45.2,35.7,32.9,28.2,23.1,80,54,32,30.26,30.12,17,7,21,0.00
2014-5-9,62.5,47.2,28.1,43.5,31.8,25.1,89,60,30,30.31,29.99,4,0,9,0.03
2014-5-10,68.7,52.9,44.3,62.3,50.6,42.1,98,92,72,29.98,29.54,8,1,12,0.41
2014-5-11,58.3,53.3,45.9,52.1,46.7,43.7,96,79,59,29.96,29.63,12,4,16,0.14
2014-5-12,46.0,41.4,37.5,44.9,38.9,35.4,97,91,81,30.28,29.96,11,3,12,0.08
2014-5-13,62.7,46.9,29.8,40.3,33.3,28.5,97,65,31,30.35,30.26,5,1,11,0.00
2014-5-14,50.2,45.0,40.4,44.8,40.7,33.8,93,85,66,30.29,30.24,2,0,4,0.03
2014-5-15,61.6,49.8,43.9,57.0,46.6,41.7,94,89,74,30.25,30.13,1,0,4,0.00
2014-5-16,78.0,65.9,54.3,62.3,57.3,52.5,97,76,50,30.15,30.04,4,1,11,0.00
2014-5-17,63.4,57.6,51.7,57.8,54.4,50.4,97,89,73,30.09,29.94,4,1,14,0.63
2014-5-18,61.5,53.6,48.1,53.1,50.1,47.3,98,89,62,30.11,30.02,6,2,7,0.21
2014-5-19,50.9,49.0,47.7,49.5,47.7,46.6,96,95,92,30.06,29.99,10,5,12,0.68
2014-5-20,54.0,49.7,45.8,52.3,48.5,44.7,97,96,94,30.03,29.98,12,6,14,0.36
2014-5-21,63.5,55.0,49.7,54.5,51.8,48.9,98,89,68,30.03,29.96,4,1,7,0.02
2014-5-22,64.5,56.6,51.4,57.3,53.2,48.9,98,89,68,29.97,29.89,5,1,7,0.12
2014-5-23,61.5,54.6,47.5,49.4,47.2,44.7,94,77,58,30.03,29.96,8,1,9,0.00
2014-5-24,59.3,52.0,46.8,49.2,46.4,44.8,94,82,64,30.09,30.02,4,0,6,0.00
2014-5-25,63.8,53.0,45.6,50.2,46.7,43.2,92,80,56,30.09,29.87,3,0,5,0.00
2014-5-26,68.8,55.8,44.4,58.1,49.9,41.4,97,82,56,29.89,29.67,16,3,18,0.28
2014-5-27,52.5,46.8,40.2,43.3,41.5,38.6,95,82,68,30.12,29.89,4,1,5,0.03
2014-5-28,66.3,52.1,37.4,41.0,36.9,32.9,95,61,30,30.20,30.12,6,1,14,0.00
2014-5-29,74.3,58.1,36.4,46.5,38.9,34.1,94,55,24,30.19,30.00,7,1,12,0.00
2014-5-30,68.9,56.6,47.5,53.2,48.1,42.6,95,74,51,30.11,29.94,13,2,19,0.04
2014-5-31,68.0,57.6,48.5,53.2,49.5,45.6,96,76,47,30.30,30.12,10,4,12,0.00
2014-6-1,74.4,60.3,41.5,54.5,46.8,40.2,97,65,36,30.32,30.08,7,1,11,0.00
2014-6-2,76.7,64.0,50.7,61.6,53.8,46.5,90,70,51,30.08,29.91,7,1,12,0.00
2014-6-3,82.0,68.3,59.4,62.0,55.7,47.4,91,67,41,29.99,29.84,2,1,9,0.00
2014-6-4,71.4,59.7,48.5,58.5,52.6,42.6,95,79,59,29.89,29.74,5,1,7,0.06
2014-6-5,63.3,58.5,54.2,60.2,56.5,53.1,97,93,87,29.77,29.73,1,0,3,0.08
2014-6-6,61.0,58.2,56.7,59.2,56.5,54.5,97,94,86,29.75,29.65,11,6,16,0.37
2014-6-7,75.5,65.0,56.1,61.9,56.4,53.0,95,76,47,29.86,29.73,13,6,15,0.01
2014-6-8,83.0,68.1,50.9,61.7,56.2,49.8,97,70,38,29.91,29.78,7,0,12,0.00
2014-6-9,76.6,67.2,55.5,62.3,56.0,44.5,96,70,33,30.00,29.80,10,4,15,0.00
2014-6-10,72.5,59.6,48.3,57.3,49.9,45.0,93,73,41,30.10,30.00,3,0,5,0.00
2014-6-11,78.4,62.7,44.4,54.4,48.3,43.0,96,64,33,30.19,30.08,3,0,7,0.00
2014-6-12,73.1,58.9,51.3,57.0,51.6,47.5,95,79,42,30.17,30.11,5,0,9,0.31
2014-6-13,64.1,54.8,49.7,55.4,50.5,48.3,96,86,60,30.13,29.97,6,1,9,0.23
2014-6-14,62.4,57.0,51.8,60.3,55.6,50.9,98,95,91,29.97,29.77,6,1,10,0.49
2014-6-15,63.1,57.1,51.3,54.0,51.6,46.9,94,83,62,30.03,29.83,15,8,27,0.00
2014-6-16,71.0,58.9,44.1,49.5,46.6,42.7,96,67,39,30.12,30.01,9,3,13,0.00
2014-6-17,78.7,65.8,52.4,62.0,54.5,48.9,92,69,46,30.05,29.80,5,0,10,0.00
2014-6-18,71.0,64.2,60.0,64.6,60.2,56.7,97,87,74,29.80,29.68,9,2,10,0.30
2014-6-19,65.9,59.0,50.8,56.7,47.4,41.1,90,66,48,29.90,29.75,15,8,23,0.00
2014-6-20,59.0,51.3,43.0,48.1,44.1,40.0,90,77,66,29.87,29.83,14,7,17,0.00
2014-6-21,62.6,57.3,51.2,51.1,48.7,45.6,86,73,62,29.88,29.82,11,4,14,0.00
2014-6-22,74.0,62.8,52.1,55.4,49.5,44.0,92,65,38,30.00,29.87,8,2,12,0.00
2014-6-23,80.2,64.1,44.7,57.8,50.8,43.1,95,66,37,30.09,30.00,6,0,7,0.00
2014-6-24,80.3,67.0,56.3,66.1,60.7,52.6,97,82,56,30.02,29.82,6,1,10,2.77
2014-6-25,74.5,66.1,60.2,62.9,59.6,55.3,98,81,52,29.99,29.81,8,1,11,0.50
2014-6-26,73.9,65.0,55.9,59.3,55.2,48.8,97,73,42,30.00,29.92,3,1,7,0.00
2014-6-27,82.2,66.0,46.1,61.0,51.8,45.0,100,66,31,30.14,30.00,3,0,8,0.00
2014-6-28,85.1,69.1,49.5,65.1,55.9,48.4,96,67,31,30.21,30.12,2,0,9,0.00
2014-6-29,87.4,72.6,55.9,66.8,58.4,53.0,92,65,34,30.16,29.94,2,0,6,0.00
2014-6-30,87.1,74.5,58.1,71.7,64.9,56.1,93,74,50,29.95,29.74,7,1,9,0.00
2014-7-1,88.6,77.5,65.6,73.7,68.9,64.1,96,77,53,29.76,29.58,9,2,14,0.00
2014-7-2,88.2,81.7,71.3,70.7,66.5,64.0,80,61,47,29.77,29.67,10,3,14,0.00
2014-7-3,84.7,75.6,66.6,69.7,66.2,62.2,96,74,50,29.90,29.74,11,2,13,0.00
2014-7-4,68.5,63.8,58.8,65.8,60.9,56.1,97,90,75,29.98,29.83,8,1,10,0.75
2014-7-5,58.5,54.2,51.1,55.9,49.3,43.6,95,84,61,29.95,29.60,15,7,19,0.91
2014-7-6,71.0,62.8,51.2,61.1,54.8,44.2,92,75,61,29.70,29.65,9,4,14,0.01
2014-7-7,69.4,63.8,60.1,64.4,62.0,58.8,98,94,79,29.68,29.62,9,1,9,0.32
2014-7-8,82.1,71.6,63.2,70.5,64.3,61.7,98,80,53,29.64,29.59,12,3,18,0.07
2014-7-9,79.8,72.2,65.4,68.5,62.4,56.1,95,73,50,29.81,29.49,14,5,18,0.01
2014-7-10,71.8,63.7,54.1,56.5,53.1,49.6,89,70,49,30.12,29.80,11,3,20,0.00
2014-7-11,76.3,63.5,48.0,56.8,51.4,46.9,97,68,40,30.19,30.10,7,1,10,0.00
2014-7-12,79.9,67.7,51.7,62.5,55.6,49.5,93,67,43,30.15,30.02,7,1,12,0.00
2014-7-13,79.1,67.8,55.0,70.0,62.8,52.9,95,85,65,30.02,29.72,2,0,7,0.19
2014-7-14,79.1,70.7,59.6,68.7,59.5,49.4,97,71,41,29.80,29.69,10,3,17,0.03
2014-7-15,80.8,69.5,54.4,68.5,59.4,49.3,96,72,47,29.83,29.71,4,0,4,0.03
2014-7-16,76.6,70.6,66.2,71.0,68.3,65.0,97,93,78,29.76,29.70,5,0,9,1.02
2014-7-17,74.0,65.9,57.8,64.9,57.7,53.5,96,76,51,29.92,29.76,8,2,12,0.00
2014-7-18,75.7,65.8,54.4,58.9,55.2,52.1,92,71,46,30.16,29.92,10,3,14,0.00
2014-7-19,81.2,67.7,53.4,66.6,59.5,52.3,97,77,49,30.26,30.17,1,0,3,0.00
2014-7-20,78.3,67.8,57.3,67.0,61.3,56.2,97,81,60,30.24,30.15,1,0,4,0.00
2014-7-21,81.6,70.7,61.4,64.6,60.1,55.3,95,72,42,30.18,30.04,3,0,10,0.00
2014-7-22,84.6,72.7,58.2,68.5,63.4,56.7,96,74,52,30.05,29.80,9,2,11,0.00
2014-7-23,81.2,70.1,61.8,70.6,64.8,55.6,95,84,69,29.80,29.62,10,3,13,0.03
2014-7-24,69.9,59.7,51.6,55.5,48.4,45.4,87,67,45,29.89,29.77,11,3,19,0.00
2014-7-25,77.2,63.5,46.4,58.9,52.6,45.0,96,71,41,29.88,29.77,7,2,11,0.00
2014-7-26,76.9,66.4,57.0,60.8,57.8,54.3,94,75,51,29.81,29.73,12,3,15,0.02
2014-7-27,77.5,65.0,56.7,65.6,60.5,55.3,97,87,57,29.78,29.62,3,0,7,1.53
2014-7-28,70.6,66.1,63.0,66.5,64.4,61.0,98,94,86,29.71,29.48,5,0,10,1.03
2014-7-29,67.9,63.7,55.3,65.5,59.9,53.2,98,88,71,29.92,29.38,9,2,15,0.10
2014-7-30,73.0,62.0,49.7,62.9,56.2,48.6,100,83,55,30.05,29.92,2,0,5,0.00
2014-7-31,76.4,64.6,56.3,64.4,59.7,55.2,97,86,53,30.10,30.00,8,0,10,0.38
2014-8-1,77.1,64.9,54.0,66.1,59.4,53.2,98,84,56,30.20,30.10,4,1,6,0.01
2014-8-2,81.2,68.0,57.0,68.8,61.8,56.2,98,82,58,30.20,30.06,3,0,4,0.00
2014-8-3,79.6,69.1,60.1,68.5,62.4,58.7,98,81,55,30.10,29.99,5,1,7,0.12
2014-8-4,79.9,67.3,57.5,68.3,61.9,56.7,98,85,50,30.02,29.91,5,0,6,0.04
2014-8-5,76.9,65.0,55.6,66.5,61.2,54.8,98,89,61,29.97,29.87,10,1,10,0.43
2014-8-6,74.2,64.3,57.1,60.2,54.6,47.7,97,74,41,29.88,29.76,8,3,15,0.04
2014-8-7,75.6,62.7,50.0,61.1,55.5,48.6,97,79,53,29.88,29.77,12,1,13,0.00
2014-8-8,74.5,63.2,53.9,64.2,57.5,52.4,96,82,60,29.98,29.86,11,3,14,0.04
2014-8-9,75.7,65.7,55.7,60.9,56.7,53.7,93,74,51,30.08,29.98,11,4,14,0.00
2014-8-10,81.3,65.9,50.4,62.8,55.5,49.3,98,73,41,30.13,30.05,4,0,6,0.00
2014-8-11,80.0,66.4,53.9,64.5,57.9,52.9,98,76,47,30.17,30.09,1,0,5,0.00
2014-8-12,82.2,67.3,54.4,64.8,58.6,53.3,97,76,46,30.16,30.06,2,0,9,0.00
2014-8-13,73.0,61.9,55.3,60.6,56.7,53.3,95,84,62,30.09,29.90,2,0,5,0.05
2014-8-14,65.0,60.6,56.2,64.1,59.5,54.8,98,96,92,29.91,29.75,6,1,10,0.60
2014-8-15,69.2,59.6,50.4,57.8,53.6,49.6,100,82,56,29.86,29.80,4,1,9,0.00
2014-8-16,66.4,58.7,53.2,60.3,56.0,52.2,98,91,73,29.86,29.82,3,0,8,0.13
2014-8-17,63.7,58.4,55.4,58.1,56.2,54.5,97,92,79,29.85,29.72,2,0,3,0.04
2014-8-18,68.4,60.0,53.3,60.3,56.4,52.2,98,88,70,29.79,29.69,10,4,15,0.02
2014-8-19,74.1,63.6,54.1,60.3,56.8,52.8,97,80,57,29.91,29.78,8,3,12,0.00
2014-8-20,78.3,65.8,53.8,62.0,57.8,52.5,96,78,50,30.09,29.91,6,2,10,0.00
2014-8-21,73.5,63.6,51.6,63.4,57.9,50.8,98,83,61,30.18,30.09,2,0,5,0.00
2014-8-22,71.6,63.3,57.5,61.3,58.3,55.9,97,85,59,30.21,30.15,2,0,4,0.00
2014-8-23,75.4,63.8,54.7,62.2,58.2,53.7,98,84,59,30.18,30.09,3,0,8,0.00
2014-8-24,84.4,69.5,56.3,65.7,59.8,54.9,97,75,43,30.11,30.01,9,2,12,0.00
2014-8-25,85.6,72.4,59.0,68.5,61.8,57.3,95,72,42,30.10,30.01,4,1,7,0.00
2014-8-26,82.3,70.8,58.9,65.4,61.4,57.2,95,74,49,30.06,29.82,12,3,15,0.00
2014-8-27,75.2,69.1,62.2,67.3,60.4,56.1,88,74,59,29.84,29.77,10,3,15,0.00
2014-8-28,62.5,57.4,51.4,57.8,54.2,48.3,96,89,78,30.00,29.76,14,5,17,0.06
2014-8-29,70.1,56.3,42.5,53.0,46.8,41.2,96,74,40,30.19,30.00,9,2,16,0.00
2014-8-30,72.4,60.3,45.0,61.7,54.5,43.7,100,82,64,30.20,29.95,10,1,12,0.00
2014-8-31,69.5,64.7,58.7,68.2,62.8,57.5,98,94,84,29.95,29.80,5,0,5,0.12
2014-9-1,71.3,66.6,62.7,67.6,64.6,61.5,97,93,86,29.96,29.85,3,0,4,0.02
2014-9-2,79.2,69.4,63.2,70.6,66.3,62.2,98,90,73,29.94,29.64,1,0,4,0.06
2014-9-3,74.5,67.5,60.1,68.2,60.2,53.7,97,79,50,29.93,29.58,12,4,13,0.81
2014-9-4,75.6,65.3,51.7,63.9,58.1,49.8,95,78,63,30.01,29.93,10,2,15,0.00
2014-9-5,81.1,70.6,59.6,67.8,63.8,58.5,97,80,62,30.06,29.75,5,0,10,0.00
2014-9-6,72.0,62.0,48.6,68.9,58.8,45.4,95,89,77,29.87,29.65,12,3,14,0.34
2014-9-7,65.6,52.9,40.2,51.2,44.3,38.9,97,75,47,30.18,29.87,11,2,17,0.00
2014-9-8,65.7,49.9,35.2,48.1,40.3,34.2,98,74,37,30.42,30.18,4,1,10,0.01
2014-9-9,72.5,56.8,42.9,55.5,48.3,41.3,95,76,48,30.43,30.21,3,0,5,0.00
2014-9-10,73.0,56.5,42.3,56.3,49.1,40.9,96,78,50,30.21,30.00,5,0,8,0.00
2014-9-11,61.7,56.0,51.3,60.3,54.4,49.6,97,94,84,29.99,29.58,9,2,10,0.30
2014-9-12,56.8,49.3,38.9,49.8,40.9,35.6,88,74,51,30.28,29.73,17,6,19,0.00
2014-9-13,53.7,44.2,32.0,47.7,39.8,30.7,97,85,59,30.42,30.09,2,0,5,0.24
2014-9-14,51.0,48.4,45.0,49.7,45.3,42.0,97,89,81,30.20,30.03,10,3,14,0.38
2014-9-15,57.9,48.0,40.7,45.7,41.4,38.5,94,79,55,30.17,30.03,5,1,12,0.00
2014-9-16,62.0,50.2,40.9,52.6,46.2,39.0,97,87,60,30.02,29.83,8,2,14,0.06
2014-9-17,54.5,47.6,40.9,45.2,41.6,36.4,96,81,53,29.97,29.84,10,2,13,0.05
2014-9-18,49.5,43.1,32.0,43.9,36.6,28.6,100,79,47,30.15,29.83,13,4,15,0.15
2014-9-19,50.9,39.9,30.9,34.3,29.2,24.5,89,68,36,30.37,30.14,9,3,11,0.00
2014-9-20,52.7,45.6,35.2,51.6,41.3,31.7,96,85,72,30.29,29.92,1,0,3,0.17
2014-9-21,74.7,63.0,52.7,64.1,58.4,51.5,97,86,65,29.92,29.56,2,1,10,0.00
2014-9-22,65.6,57.3,46.1,61.9,53.9,41.1,96,89,74,29.79,29.36,16,4,17,0.30
2014-9-23,52.4,46.5,40.9,46.4,40.3,36.2,89,79,60,30.40,29.80,12,4,15,0.02
2014-9-24,63.6,46.2,29.8,45.9,38.2,28.3,97,76,44,30.64,30.41,5,1,11,0.00
2014-9-25,72.6,56.6,41.1,57.8,50.2,39.8,98,81,56,30.47,30.19,9,2,13,0.00
2014-9-26,74.9,61.3,46.3,58.7,53.8,45.2,98,79,51,30.22,30.03,6,1,10,0.01
2014-9-27,72.2,63.4,53.2,56.3,54.2,50.5,93,73,51,30.13,30.00,13,4,15,0.00
2014-9-28,81.3,66.2,51.1,63.3,56.0,49.5,97,73,42,30.05,29.84,8,2,11,0.00
2014-9-29,63.6,48.7,38.7,57.0,44.9,37.2,95,87,77,30.22,29.89,12,3,15,0.27
2014-9-30,47.0,42.5,37.4,45.4,41.4,36.1,97,96,93,30.20,30.11,3,0,4,0.04
2014-10-1,59.8,46.8,39.4,48.4,43.2,38.2,97,88,64,30.27,30.16,6,1,7,0.00
2014-10-2,61.4,45.2,36.2,48.1,40.6,35.3,98,86,57,30.36,30.23,1,0,4,0.01
2014-10-3,61.9,46.3,37.2,49.6,42.2,36.4,98,87,62,30.25,29.99,1,0,3,0.01
2014-10-4,59.0,51.4,42.9,58.4,50.0,41.0,98,95,91,29.98,29.67,1,0,2,0.35
2014-10-5,60.0,54.1,40.6,59.4,51.7,37.6,100,92,79,29.84,29.50,9,1,11,1.04
2014-10-6,60.2,45.9,34.4,46.6,40.0,33.1,97,82,51,30.17,29.83,6,0,6,0.00
2014-10-7,58.2,49.5,39.3,53.8,47.0,38.3,97,91,78,30.18,30.02,3,0,6,0.18
2014-10-8,58.3,53.4,46.3,56.9,52.3,44.9,98,96,92,30.02,29.54,6,1,9,0.89
2014-10-9,49.9,44.2,37.4,46.0,38.9,34.0,96,82,59,29.73,29.61,14,4,14,0.06
2014-10-10,52.8,45.0,38.8,42.8,38.9,35.9,93,79,66,30.03,29.70,13,6,18,0.00
2014-10-11,52.0,42.4,33.6,42.5,38.0,32.3,97,85,59,30.12,30.02,6,0,10,0.02
2014-10-12,52.6,43.2,35.2,39.1,35.9,33.4,93,77,52,30.22,30.05,10,4,13,0.00
2014-10-13,62.9,45.9,33.4,42.6,36.7,30.9,94,73,39,30.28,30.15,6,1,11,0.00
2014-10-14,71.3,52.6,37.3,58.5,47.5,35.4,97,84,62,30.18,29.96,2,0,9,0.00
2014-10-15,65.2,57.4,53.4,60.5,55.7,52.3,97,94,84,30.05,29.92,7,0,7,0.11
2014-10-16,56.2,54.4,52.2,55.6,53.7,51.7,98,98,96,30.02,29.87,1,0,4,0.09
2014-10-17,63.1,57.6,50.3,62.7,56.3,49.1,99,96,86,29.86,29.38,12,1,15,1.83
2014-10-18,61.5,53.6,46.6,56.9,52.0,45.2,100,95,84,29.56,29.40,13,0,16,0.24
2014-10-19,46.3,40.0,35.9,44.9,34.4,30.6,95,81,67,29.77,29.42,14,7,18,0.02
2014-10-20,43.8,36.2,30.3,30.6,28.3,26.6,88,74,53,29.98,29.75,13,6,17,0.00
2014-10-21,46.5,36.2,26.2,35.4,29.0,24.2,95,77,47,30.36,29.98,5,1,6,0.00
2014-10-22,49.9,40.7,32.0,39.1,34.6,29.4,92,79,62,30.46,30.34,8,2,11,0.00
2014-10-23,45.8,43.1,40.6,39.8,37.3,34.2,86,80,67,30.35,29.98,7,3,11,0.00
2014-10-24,46.3,42.8,40.0,40.6,37.7,34.6,94,83,64,29.98,29.71,10,5,13,0.41
2014-10-25,44.9,42.0,39.1,41.1,38.5,35.8,95,87,74,29.71,29.47,3,0,5,0.02
2014-10-26,44.8,41.1,38.1,43.0,39.9,36.5,97,95,90,29.50,29.36,8,2,10,0.27
2014-10-27,45.0,40.4,37.3,37.3,36.1,35.0,96,85,71,29.90,29.49,16,9,19,0.01
2014-10-28,49.4,41.8,38.3,41.1,36.8,34.4,95,83,68,30.08,29.90,15,3,18,0.02
2014-10-29,51.9,47.4,42.5,51.4,46.0,41.2,98,95,80,29.93,29.68,6,1,9,0.24
2014-10-30,46.0,42.5,38.3,41.3,34.8,29.5,92,75,58,29.95,29.67,11,4,14,0.00
2014-10-31,40.5,37.6,35.3,32.7,30.9,29.1,87,77,66,30.17,29.95,2,0,5,0.00
2014-11-1,39.5,36.0,33.7,31.4,29.3,26.6,85,77,63,30.20,30.06,8,2,13,0.00
2014-11-2,34.4,31.0,27.7,28.9,27.4,26.0,94,87,74,30.09,29.50,20,12,30,0.00
2014-11-3,35.4,32.4,29.0,26.8,25.6,24.5,91,76,67,29.93,29.47,20,13,27,0.00
2014-11-4,41.1,33.8,28.3,32.0,27.9,23.8,94,79,61,30.14,29.93,7,2,10,0.03
2014-11-5,48.7,40.1,33.4,44.0,37.1,31.9,97,90,71,29.99,29.78,13,2,16,0.39
2014-11-6,45.6,40.3,36.7,36.8,35.1,33.2,93,82,67,30.03,29.77,6,2,7,0.00
2014-11-7,36.9,32.6,27.1,35.1,31.3,22.6,97,95,83,29.77,29.45,17,4,17,0.24
2014-11-8,31.9,27.0,21.0,25.4,22.5,18.9,93,83,73,29.88,29.49,15,6,21,0.01
2014-11-9,36.2,30.5,24.3,33.9,27.5,22.2,94,89,77,29.98,29.83,4,0,5,0.04
2014-11-10,41.2,31.9,25.4,33.8,27.7,21.6,93,85,68,30.26,29.98,5,1,6,0.05
2014-11-11,35.5,31.3,26.8,31.3,27.5,20.2,92,86,68,30.26,30.09,3,1,4,0.01
2014-11-12,36.8,33.8,31.5,36.0,32.6,30.1,97,95,87,30.10,29.84,3,1,5,0.15
2014-11-13,37.7,33.6,28.8,31.5,23.6,18.4,89,68,46,29.94,29.87,10,3,14,0.00
2014-11-14,34.8,29.2,22.2,25.1,21.4,11.9,87,73,50,29.93,29.80,12,4,16,0.00
2014-11-15,29.2,23.3,17.5,19.5,14.3,10.3,82,68,55,30.19,29.92,10,4,12,0.00
2014-11-16,30.4,25.3,16.4,28.0,21.9,11.6,93,87,77,30.24,30.10,7,1,9,0.00
2014-11-17,32.6,29.4,25.6,29.7,27.7,24.1,96,94,88,30.10,29.40,2,0,4,0.05
2014-11-18,34.4,27.3,19.1,32.3,22.0,11.7,97,81,61,29.48,29.27,21,8,26,0.00
2014-11-19,25.5,19.7,9.9,15.7,11.9,5.7,92,72,61,30.04,29.48,15,7,22,0.00
2014-11-20,28.5,19.9,10.0,22.8,15.6,6.6,92,84,68,30.02,29.70,6,0,6,0.00
2014-11-21,22.6,16.6,9.8,18.3,11.0,6.4,92,79,63,30.17,29.70,14,5,20,0.00
2014-11-22,29.8,19.1,6.8,27.0,15.3,2.5,94,85,77,30.19,29.80,12,4,16,0.00
2014-11-23,38.9,34.7,29.9,33.7,31.4,27.3,93,88,79,30.13,29.81,8,2,9,0.16
2014-11-24,52.4,41.5,34.2,51.9,40.4,32.5,99,96,91,30.12,29.38,4,1,5,0.41
2014-11-25,52.1,44.7,38.5,51.4,36.1,29.2,98,72,60,29.86,29.41,21,11,26,0.01
2014-11-26,38.9,31.6,24.0,29.4,23.0,19.0,92,71,58,30.24,29.88,12,6,16,0.00
2014-11-27,24.0,20.0,9.2,22.0,17.4,6.6,93,90,82,30.07,29.87,15,7,17,0.00
2014-11-28,18.8,12.6,5.0,14.4,9.7,2.6,100,88,77,30.12,30.04,3,0,4,0.00
2014-11-29,19.2,10.6,3.7,12.3,7.0,0.7,91,85,73,30.31,30.12,6,1,7,0.00
2014-11-30,36.4,27.2,11.9,35.4,25.6,9.8,100,93,89,30.24,29.83,1,0,4,0.06
2014-12-1,36.8,27.4,10.4,36.0,24.5,6.5,97,89,71,30.44,29.79,15,5,15,0.12
2014-12-2,10.9,6.3,1.6,6.4,-1.7,-7.4,85,69,52,30.86,30.46,14,3,16,0.00
2014-12-3,32.0,23.0,9.9,31.0,20.8,3.0,96,91,73,30.67,29.69,5,0,6,0.00
2014-12-4,31.4,17.0,-3.6,29.3,10.7,-7.2,94,76,50,30.58,29.72,17,7,22,0.00
2014-12-5,13.9,1.2,-9.8,5.8,-3.4,-13.5,87,81,63,30.78,30.58,4,0,6,0.00
2014-12-6,26.6,21.6,10.7,25.1,19.1,6.0,95,90,79,30.57,30.22,8,1,11,0.00
2014-12-7,24.4,5.8,-6.4,21.1,-1.1,-10.0,87,73,53,30.82,30.28,16,8,21,0.01
2014-12-8,10.9,0.3,-11.1,3.4,-4.9,-15.1,86,78,67,30.91,30.71,4,0,6,0.00
2014-12-9,27.7,21.1,8.3,26.5,18.3,3.7,95,89,81,30.71,30.23,5,0,7,0.00
2014-12-10,33.3,30.9,27.2,31.3,29.3,25.7,96,94,91,30.22,29.73,12,8,21,0.00
2014-12-11,37.1,35.0,33.2,36.3,34.1,31.0,98,96,91,29.81,29.64,12,2,18,0.75
2014-12-12,36.0,34.4,32.6,35.2,33.6,31.8,98,97,96,29.90,29.72,9,2,12,0.31
2014-12-13,35.6,34.2,33.0,34.6,33.3,32.2,98,97,96,29.75,29.68,7,2,9,0.12
2014-12-14,34.5,33.0,29.6,33.6,32.1,27.7,98,96,92,29.85,29.73,7,2,11,0.02
2014-12-15,29.3,26.2,23.3,27.3,23.4,21.1,93,89,85,30.18,29.86,12,4,20,0.00
2014-12-16,26.1,25.0,23.4,25.1,23.3,21.4,96,93,90,30.20,30.06,1,0,3,0.00
2014-12-17,30.8,28.5,26.1,30.0,27.5,24.9,97,96,95,30.06,29.77,1,0,4,0.00
2014-12-18,28.0,26.2,23.6,27.0,24.8,21.6,96,95,92,29.77,29.61,14,7,21,0.00
2014-12-19,26.1,21.9,13.0,22.0,18.6,10.9,93,87,76,30.21,29.73,11,6,17,0.00
2014-12-20,19.0,14.1,9.6,15.8,11.7,7.3,93,90,83,30.44,30.21,4,0,6,0.00
2014-12-21,22.2,18.4,13.2,19.7,16.5,11.6,94,92,89,30.44,30.39,3,0,4,0.00
2014-12-22,25.0,22.3,19.9,23.1,20.5,18.3,100,93,87,30.49,30.42,0,0,0,0.00
2014-12-23,32.6,28.6,24.5,30.8,27.4,23.3,96,95,92,30.43,30.33,1,0,3,0.01
2014-12-24,33.4,31.6,29.4,32.9,30.5,27.8,98,96,91,30.33,29.59,0,0,2,0.73
2014-12-25,41.8,37.7,33.4,41.3,33.9,27.6,99,87,69,29.59,29.22,16,7,22,0.86
2014-12-26,38.0,34.9,32.3,27.6,24.1,21.9,75,65,52,29.91,29.49,18,11,30,0.00
2014-12-27,34.8,31.1,25.2,28.6,22.3,19.0,85,70,54,30.06,29.88,9,2,14,0.00
2014-12-28,40.1,30.0,25.8,37.6,27.5,21.7,97,90,82,29.88,29.52,12,2,14,0.23
2014-12-29,25.2,11.7,-1.2,21.3,5.7,-6.6,92,77,60,30.20,29.83,9,3,16,0.00
2014-12-30,1.1,-4.6,-11.6,-6.6,-10.8,-15.6,84,74,61,30.33,30.18,10,3,12,0.00
2014-12-31,5.6,-5.0,-15.4,-2.0,-10.7,-19.8,84,76,62,30.26,30.01,8,2,11,0.00
2015-1-1,21.1,14.1,3.1,17.2,8.6,-1.7,91,79,68,30.00,29.72,9,2,13,0.00
2015-1-2,20.3,10.7,-3.7,16.1,6.2,-10.4,91,82,72,30.36,29.69,10,4,14,0.00